Time;durP1;ratioP1;P1;durP2;ratioP2;P2;SDS_P1;SDS_P2;PMS_P1;PMS_P2;Temp;Humidity;BMP_temperature;BMP_pressure;BME280_temperature;BME280_humidity;BME280_pressure;Samples;Min_cycle;Max_cycle;Signal;HPM_P1;HPM_P2
2020/12/21 00:02:26;;;;;;;16.10;5.68;;;7.10;99.90;;;;;;4710469;30;20052;-89
2020/12/21 00:04:52;;;;;;;27.48;6.38;;;7.00;99.90;;;;;;4738721;30;20040;-89
2020/12/21 00:07:17;;;;;;;20.20;5.30;;;7.00;99.90;;;;;;4724339;30;20052;-89
2020/12/21 00:09:43;;;;;;;24.45;6.05;;;7.00;99.90;;;;;;4739407;30;20040;-91
2020/12/21 00:12:09;;;;;;;25.73;6.40;;;6.90;99.90;;;;;;4725044;30;20082;-88
2020/12/21 00:14:35;;;;;;;18.92;6.82;;;6.90;99.90;;;;;;4737186;30;20088;-89
2020/12/21 00:17:01;;;;;;;18.58;5.60;;;6.80;99.90;;;;;;4754128;30;20135;-86
2020/12/21 00:19:26;;;;;;;23.38;5.47;;;6.90;99.90;;;;;;4737734;30;20048;-88
2020/12/21 00:21:53;;;;;;;25.77;5.63;;;6.90;99.90;;;;;;4753235;30;20044;-87
2020/12/21 00:24:22;;;;;;;17.23;5.00;;;6.80;99.90;;;;;;4722994;30;20072;-87
2020/12/21 00:26:50;;;;;;;20.55;5.30;;;6.80;99.90;;;;;;4737429;30;20048;-88
2020/12/21 00:29:16;;;;;;;19.95;5.75;;;6.80;99.90;;;;;;4753900;30;20059;-89
2020/12/21 00:31:43;;;;;;;24.05;5.55;;;6.70;99.90;;;;;;4736572;30;20044;-89
2020/12/21 00:34:10;;;;;;;31.25;5.32;;;6.70;99.90;;;;;;4753645;30;20052;-89
2020/12/21 00:36:37;;;;;;;18.15;5.50;;;6.60;99.90;;;;;;4737445;30;20056;-89
2020/12/21 00:39:05;;;;;;;25.48;5.45;;;6.60;99.90;;;;;;4723777;30;20401;-89
2020/12/21 00:41:31;;;;;;;21.55;6.60;;;6.50;99.90;;;;;;4737532;30;20464;-88
2020/12/21 00:43:57;;;;;;;27.13;5.72;;;6.50;99.90;;;;;;4736768;30;20125;-88
2020/12/21 00:46:25;;;;;;;22.63;5.85;;;6.50;99.90;;;;;;4708569;30;20409;-88
2020/12/21 00:48:55;;;;;;;19.60;5.25;;;6.50;99.90;;;;;;4736929;30;20524;-87
2020/12/21 00:51:21;;;;;;;15.68;4.93;;;6.40;99.90;;;;;;4737277;30;20048;-88
2020/12/21 00:53:49;;;;;;;21.90;4.82;;;6.40;99.90;;;;;;4722570;30;20052;-89
2020/12/21 00:56:16;;;;;;;23.13;5.15;;;6.40;99.90;;;;;;4737759;30;20095;-88
2020/12/21 00:58:42;;;;;;;25.30;6.57;;;6.40;99.90;;;;;;4752495;30;20452;-88
2020/12/21 01:01:11;;;;;;;22.50;6.13;;;6.30;99.90;;;;;;4736297;30;20052;-88
2020/12/21 01:03:37;;;;;;;17.15;5.25;;;6.30;99.90;;;;;;4734049;30;20158;-88
2020/12/21 01:06:04;;;;;;;20.67;5.28;;;6.30;99.90;;;;;;4732491;30;20052;-88
2020/12/21 01:08:29;;;;;;;18.95;5.13;;;6.30;99.90;;;;;;4740656;30;20470;-88
2020/12/21 01:10:55;;;;;;;26.73;5.05;;;6.40;99.90;;;;;;4707438;30;20090;-87
2020/12/21 01:13:22;;;;;;;27.15;5.10;;;6.40;99.90;;;;;;4720169;30;20048;-88
2020/12/21 01:15:48;;;;;;;28.23;5.28;;;6.40;99.90;;;;;;4749845;30;20048;-87
2020/12/21 01:18:14;;;;;;;19.95;5.00;;;6.30;99.90;;;;;;4730334;30;20048;-88
2020/12/21 01:20:45;;;;;;;25.35;5.20;;;6.40;99.90;;;;;;4726104;30;20040;-88
2020/12/21 01:23:10;;;;;;;26.33;5.85;;;6.30;99.90;;;;;;4750290;30;20047;-88
2020/12/21 01:25:36;;;;;;;27.05;5.85;;;6.30;99.90;;;;;;4720056;30;20056;-87
2020/12/21 01:28:03;;;;;;;18.23;4.93;;;6.20;99.90;;;;;;4733819;30;20052;-87
2020/12/21 01:30:29;;;;;;;28.95;6.20;;;6.30;99.90;;;;;;4733295;30;20044;-87
2020/12/21 01:32:55;;;;;;;27.50;6.55;;;6.20;99.90;;;;;;4718410;30;20070;-84
2020/12/21 01:35:20;;;;;;;23.85;5.68;;;6.10;99.90;;;;;;4737028;30;20079;-84
2020/12/21 01:37:46;;;;;;;22.85;5.63;;;6.20;99.90;;;;;;4748853;30;20075;-85
2020/12/21 01:40:12;;;;;;;18.73;5.47;;;6.10;99.90;;;;;;4748496;30;20508;-85
2020/12/21 01:42:38;;;;;;;21.63;5.00;;;6.10;99.90;;;;;;4717877;30;20087;-85
2020/12/21 01:45:08;;;;;;;21.42;5.60;;;6.20;99.90;;;;;;4732917;30;20040;-85
2020/12/21 01:47:35;;;;;;;23.90;5.35;;;6.20;99.90;;;;;;4750029;30;20059;-85
2020/12/21 01:50:04;;;;;;;22.42;5.30;;;6.20;99.90;;;;;;4718980;30;20643;-86
2020/12/21 01:52:31;;;;;;;19.58;5.13;;;6.10;99.90;;;;;;4749862;30;20081;-85
2020/12/21 01:54:57;;;;;;;19.08;5.40;;;6.10;99.90;;;;;;4749279;30;20052;-85
2020/12/21 01:57:23;;;;;;;24.17;5.25;;;6.10;99.90;;;;;;4719511;30;20051;-85
2020/12/21 01:59:49;;;;;;;19.60;5.00;;;6.20;99.90;;;;;;4718761;30;20084;-85
2020/12/21 02:02:14;;;;;;;20.52;5.95;;;6.10;99.90;;;;;;4750330;30;20411;-85
2020/12/21 02:04:40;;;;;;;21.58;6.35;;;6.10;99.90;;;;;;4749898;30;20909;-87
2020/12/21 02:07:07;;;;;;;25.77;6.43;;;6.10;99.90;;;;;;4718946;30;20044;-87
2020/12/21 02:09:34;;;;;;;13.40;6.20;;;6.10;99.90;;;;;;4734057;30;20505;-86
2020/12/21 02:12:00;;;;;;;28.35;7.30;;;6.10;99.90;;;;;;4733201;30;20150;-86
2020/12/21 02:14:26;;;;;;;22.50;6.50;;;6.10;99.90;;;;;;4733557;30;20048;-87
2020/12/21 02:16:52;;;;;;;20.13;5.95;;;6.00;99.90;;;;;;4749176;30;20071;-86
2020/12/21 02:19:18;;;;;;;22.85;6.20;;;6.00;99.90;;;;;;4705000;30;20083;-88
2020/12/21 02:21:46;;;;;;;18.35;5.95;;;6.00;99.90;;;;;;4733205;30;20063;-88
2020/12/21 02:24:12;;;;;;;26.35;6.53;;;6.00;99.90;;;;;;4749700;30;20159;-88
2020/12/21 02:26:38;;;;;;;22.25;5.68;;;5.90;99.90;;;;;;4733753;30;20086;-88
2020/12/21 02:29:04;;;;;;;24.55;5.55;;;5.90;99.90;;;;;;4718711;30;20044;-87
2020/12/21 02:31:30;;;;;;;26.83;6.30;;;5.90;99.90;;;;;;4717885;30;20154;-87
2020/12/21 02:33:56;;;;;;;22.17;5.00;;;5.80;99.90;;;;;;4733037;30;20114;-86
2020/12/21 02:36:22;;;;;;;17.77;5.00;;;5.70;99.90;;;;;;4748971;30;20156;-87
2020/12/21 02:38:48;;;;;;;19.80;5.47;;;5.70;99.90;;;;;;4748727;30;20113;-87
2020/12/21 02:41:17;;;;;;;21.92;4.80;;;5.60;99.90;;;;;;4732934;30;20055;-87
2020/12/21 02:43:44;;;;;;;17.60;5.10;;;5.60;99.90;;;;;;4733692;30;20138;-88
2020/12/21 02:46:14;;;;;;;25.58;6.22;;;5.50;99.90;;;;;;4749011;30;20058;-87
2020/12/21 02:48:40;;;;;;;24.40;5.95;;;5.40;99.90;;;;;;4733412;30;20056;-86
2020/12/21 02:51:06;;;;;;;17.25;5.13;;;5.40;99.90;;;;;;4748304;30;20048;-86
2020/12/21 02:53:32;;;;;;;20.98;5.40;;;5.30;99.90;;;;;;4732992;30;20052;-86
2020/12/21 02:55:58;;;;;;;20.75;5.70;;;5.30;99.90;;;;;;4752843;30;20405;-86
2020/12/21 02:58:24;;;;;;;31.50;7.25;;;5.30;99.90;;;;;;4733544;30;20086;-87
2020/12/21 03:00:50;;;;;;;24.15;6.85;;;5.30;99.90;;;;;;4717848;30;20048;-86
2020/12/21 03:03:17;;;;;;;26.40;6.45;;;5.20;99.90;;;;;;4733169;30;20052;-87
2020/12/21 03:05:42;;;;;;;13.77;5.57;;;5.20;99.90;;;;;;4749259;30;20059;-86
2020/12/21 03:08:10;;;;;;;19.25;5.95;;;5.10;99.90;;;;;;4732532;30;20048;-86
2020/12/21 03:10:37;;;;;;;21.38;5.85;;;5.10;99.90;;;;;;4748433;30;20871;-86
2020/12/21 03:13:04;;;;;;;20.88;5.43;;;5.00;99.90;;;;;;4732578;30;20101;-86
2020/12/21 03:15:30;;;;;;;23.30;6.53;;;5.10;99.90;;;;;;4749068;30;20062;-86
2020/12/21 03:17:56;;;;;;;24.80;6.90;;;4.90;99.90;;;;;;4730507;30;20044;-87
2020/12/21 03:20:22;;;;;;;26.80;6.15;;;4.90;99.90;;;;;;4747881;30;20127;-87
2020/12/21 03:22:48;;;;;;;29.00;6.65;;;4.90;99.90;;;;;;4732547;30;20052;-89
2020/12/21 03:25:15;;;;;;;29.23;6.55;;;4.80;99.90;;;;;;4732294;30;20062;-87
2020/12/21 03:27:41;;;;;;;23.15;6.32;;;4.80;99.90;;;;;;4718429;30;20048;-87
2020/12/21 03:30:08;;;;;;;22.83;5.60;;;4.70;99.90;;;;;;4714788;30;20059;-88
2020/12/21 03:32:34;;;;;;;28.23;6.70;;;4.70;99.90;;;;;;4713985;30;20056;-86
2020/12/21 03:35:00;;;;;;;27.33;7.40;;;4.60;99.90;;;;;;4747875;30;20135;-87
2020/12/21 03:37:26;;;;;;;22.00;7.05;;;4.60;99.90;;;;;;4732315;30;20063;-87
2020/12/21 03:39:52;;;;;;;30.48;6.72;;;4.60;99.90;;;;;;4717384;30;20040;-87
2020/12/21 03:42:17;;;;;;;28.98;7.70;;;4.50;99.90;;;;;;4748854;30;20094;-87
2020/12/21 03:44:43;;;;;;;29.38;7.47;;;4.50;99.90;;;;;;4732692;30;20052;-87
2020/12/21 03:47:09;;;;;;;30.52;8.50;;;4.50;99.90;;;;;;4732039;30;20051;-87
2020/12/21 03:49:35;;;;;;;29.98;7.07;;;4.50;99.90;;;;;;4732572;30;20048;-87
2020/12/21 03:52:01;;;;;;;33.25;8.07;;;4.50;99.90;;;;;;4731570;30;20877;-86
2020/12/21 03:54:26;;;;;;;32.72;8.35;;;4.50;99.90;;;;;;4748357;30;20135;-87
2020/12/21 03:56:53;;;;;;;21.17;7.60;;;4.50;99.90;;;;;;4731831;30;20060;-87
2020/12/21 03:59:19;;;;;;;32.45;8.68;;;4.50;99.90;;;;;;4703584;30;20183;-86
2020/12/21 04:01:45;;;;;;;32.47;8.00;;;4.50;99.90;;;;;;4705585;30;20472;-87
2020/12/21 04:04:11;;;;;;;25.33;7.05;;;4.60;99.90;;;;;;4714839;30;20068;-87
2020/12/21 04:06:37;;;;;;;32.78;7.78;;;4.60;99.90;;;;;;4742985;30;20489;-86
2020/12/21 04:09:04;;;;;;;34.05;7.70;;;4.60;99.90;;;;;;4731336;30;20106;-85
2020/12/21 04:11:30;;;;;;;23.60;7.85;;;4.70;99.90;;;;;;4747487;30;20048;-86
2020/12/21 04:13:56;;;;;;;29.13;8.90;;;4.60;99.90;;;;;;4747510;30;20048;-87
2020/12/21 04:16:22;;;;;;;32.60;8.90;;;4.60;99.90;;;;;;4747137;30;20486;-87
2020/12/21 04:18:47;;;;;;;25.20;8.35;;;4.70;99.90;;;;;;4718119;30;20048;-87
2020/12/21 04:21:14;;;;;;;28.42;8.70;;;4.60;99.90;;;;;;4746170;30;20046;-87
2020/12/21 04:23:41;;;;;;;36.00;9.63;;;4.70;99.90;;;;;;4748017;30;20136;-86
2020/12/21 04:26:07;;;;;;;36.22;8.80;;;4.60;99.90;;;;;;4747687;30;20056;-86
2020/12/21 04:28:34;;;;;;;36.30;8.25;;;4.60;99.90;;;;;;4748286;30;20074;-88
2020/12/21 04:31:04;;;;;;;40.53;9.20;;;4.60;99.90;;;;;;4747621;30;20048;-87
2020/12/21 04:33:30;;;;;;;25.37;7.90;;;4.50;99.90;;;;;;4732476;30;20048;-86
2020/12/21 04:35:56;;;;;;;32.78;8.57;;;4.50;99.90;;;;;;4746337;30;20299;-87
2020/12/21 04:38:22;;;;;;;20.95;8.15;;;4.40;99.90;;;;;;4733416;30;20054;-86
2020/12/21 04:41:06;;;;;;;33.58;8.23;;;4.50;99.90;;;;;;4721193;30;20048;-87
2020/12/21 04:43:33;;;;;;;36.08;9.27;;;4.40;99.90;;;;;;4735414;30;20105;-85
2020/12/21 04:46:04;;;;;;;28.95;8.45;;;4.40;99.90;;;;;;4735038;30;20071;-87
2020/12/21 04:48:32;;;;;;;29.60;8.60;;;4.30;99.90;;;;;;4735145;30;20048;-87
2020/12/21 04:50:58;;;;;;;31.02;8.20;;;4.30;99.90;;;;;;4750740;30;20048;-86
2020/12/21 04:53:24;;;;;;;43.10;9.60;;;4.30;99.90;;;;;;4750074;30;20060;-86
2020/12/21 04:55:51;;;;;;;34.88;8.65;;;4.30;99.90;;;;;;4721040;30;20464;-87
2020/12/21 04:58:17;;;;;;;36.40;8.38;;;4.30;99.90;;;;;;4750158;30;20048;-88
2020/12/21 05:00:43;;;;;;;43.88;9.82;;;4.30;99.90;;;;;;4720822;30;20059;-87
2020/12/21 05:03:09;;;;;;;35.47;9.00;;;4.20;99.90;;;;;;4734606;30;20060;-87
2020/12/21 05:05:42;;;;;;;40.28;9.38;;;4.20;99.90;;;;;;4720456;30;20114;-86
2020/12/21 05:08:14;;;;;;;35.35;9.07;;;4.20;99.90;;;;;;4750379;30;20044;-87
2020/12/21 05:10:42;;;;;;;30.80;9.00;;;4.10;99.90;;;;;;4749614;30;20044;-86
2020/12/21 05:13:11;;;;;;;35.45;9.20;;;4.10;99.90;;;;;;4749849;30;20048;-87
2020/12/21 05:15:37;;;;;;;35.90;8.77;;;4.10;99.90;;;;;;4735097;30;20110;-87
2020/12/21 05:18:12;;;;;;;32.55;10.07;;;4.10;99.90;;;;;;4722136;30;20132;-87
2020/12/21 05:20:39;;;;;;;38.97;9.15;;;4.10;99.90;;;;;;4734459;30;20056;-87
2020/12/21 05:23:16;;;;;;;29.85;9.07;;;4.10;99.90;;;;;;4724998;30;20106;-86
2020/12/21 05:25:45;;;;;;;26.77;9.55;;;4.10;99.90;;;;;;4750750;30;20127;-86
2020/12/21 05:28:13;;;;;;;38.22;11.43;;;4.10;99.90;;;;;;4717049;30;20395;-86
2020/12/21 05:31:23;;;;;;;40.88;9.85;;;4.10;99.90;;;;;;4743120;30;20109;-86
2020/12/21 05:33:48;;;;;;;45.47;10.55;;;4.10;99.90;;;;;;4708204;30;20060;-86
2020/12/21 05:36:20;;;;;;;45.10;10.23;;;4.10;99.90;;;;;;4719413;30;20459;-85
2020/12/21 05:39:04;;;;;;;37.08;10.48;;;4.00;99.90;;;;;;4734563;30;20599;-85
2020/12/21 05:41:30;;;;;;;35.55;9.85;;;4.10;99.90;;;;;;4750329;30;20044;-85
2020/12/21 05:44:04;;;;;;;36.72;10.18;;;4.10;99.90;;;;;;4749496;30;20573;-85
2020/12/21 05:46:30;;;;;;;43.92;10.20;;;4.10;99.90;;;;;;4733732;30;20488;-87
2020/12/21 05:48:58;;;;;;;43.65;10.75;;;4.10;99.90;;;;;;4748763;30;20076;-87
2020/12/21 05:51:25;;;;;;;32.65;9.98;;;4.10;99.90;;;;;;4734035;30;20515;-86
2020/12/21 05:53:55;;;;;;;33.20;9.60;;;4.10;99.90;;;;;;4750506;30;20052;-85
2020/12/21 05:56:27;;;;;;;39.85;10.35;;;4.00;99.90;;;;;;4733555;30;20505;-87
2020/12/21 05:58:54;;;;;;;39.83;9.77;;;4.00;99.90;;;;;;4738190;30;20063;-88
2020/12/21 06:01:20;;;;;;;35.13;9.82;;;4.00;99.90;;;;;;4749402;30;20052;-86
2020/12/21 06:03:48;;;;;;;41.75;10.20;;;4.00;99.90;;;;;;4727418;30;20044;-86
2020/12/21 06:06:21;;;;;;;37.05;9.48;;;3.90;99.90;;;;;;4740514;30;20052;-86
2020/12/21 06:08:49;;;;;;;33.05;10.15;;;3.90;99.90;;;;;;4717583;30;20489;-85
2020/12/21 06:11:17;;;;;;;30.40;9.23;;;3.90;99.90;;;;;;4716713;30;20521;-87
2020/12/21 06:13:54;;;;;;;35.90;10.27;;;3.90;99.90;;;;;;4732496;30;20048;-86
2020/12/21 06:16:21;;;;;;;32.03;9.63;;;3.90;99.90;;;;;;4736016;30;20674;-86
2020/12/21 06:18:57;;;;;;;31.95;10.07;;;3.90;99.90;;;;;;4733889;30;20075;-85
2020/12/21 06:21:27;;;;;;;37.55;12.52;;;3.90;99.90;;;;;;4748755;30;20048;-86
2020/12/21 06:23:53;;;;;;;39.92;9.48;;;3.90;99.90;;;;;;4733526;30;20043;-85
2020/12/21 06:26:29;;;;;;;32.08;9.55;;;3.90;99.90;;;;;;4718366;30;20055;-85
2020/12/21 06:28:59;;;;;;;32.17;10.07;;;3.90;99.90;;;;;;4733637;30;20133;-86
2020/12/21 06:31:37;;;;;;;39.42;10.98;;;3.80;99.90;;;;;;4748679;30;20059;-84
2020/12/21 06:34:02;;;;;;;30.75;10.88;;;3.90;99.90;;;;;;4749247;30;20051;-87
2020/12/21 06:36:35;;;;;;;40.67;9.90;;;3.80;99.90;;;;;;4733261;30;20048;-86
2020/12/21 06:39:01;;;;;;;38.13;10.10;;;3.90;99.90;;;;;;4733234;30;20084;-86
2020/12/21 06:41:27;;;;;;;33.88;10.23;;;3.90;99.90;;;;;;4733107;30;20052;-85
2020/12/21 06:43:54;;;;;;;43.75;10.85;;;3.90;99.90;;;;;;4733541;30;20052;-85
2020/12/21 06:46:21;;;;;;;30.70;9.27;;;3.80;99.90;;;;;;4731401;30;20566;-86
2020/12/21 06:49:13;;;;;;;35.03;10.20;;;3.90;99.90;;;;;;4733111;30;20520;-85
2020/12/21 06:51:41;;;;;;;36.78;10.07;;;3.90;99.90;;;;;;4728754;30;20120;-86
2020/12/21 06:54:09;;;;;;;41.58;10.20;;;3.90;99.90;;;;;;4732436;30;20052;-86
2020/12/21 06:56:40;;;;;;;26.60;9.88;;;4.00;99.90;;;;;;4733025;30;20492;-86
2020/12/21 06:59:11;;;;;;;49.03;11.20;;;4.00;99.90;;;;;;4732801;30;20052;-87
2020/12/21 07:01:37;;;;;;;;;;;3.90;99.90;;;;;;4748656;30;20939;-86
2020/12/21 07:04:03;;;;;;;35.28;10.63;;;4.00;99.90;;;;;;4732847;30;19956;-87
2020/12/21 07:06:29;;;;;;;40.63;10.73;;;4.00;99.90;;;;;;4748530;30;20048;-86
2020/12/21 07:08:59;;;;;;;36.15;9.10;;;4.00;99.90;;;;;;4733144;30;20394;-87
2020/12/21 07:11:25;;;;;;;43.72;11.82;;;4.00;99.90;;;;;;4732904;30;20044;-86
2020/12/21 07:13:51;;;;;;;39.33;11.07;;;4.00;99.90;;;;;;4718478;30;20075;-87
2020/12/21 07:16:18;;;;;;;42.05;10.77;;;3.90;99.90;;;;;;4732286;30;20555;-87
2020/12/21 07:18:48;;;;;;;50.55;12.70;;;3.90;99.90;;;;;;4733198;30;20485;-87
2020/12/21 07:21:14;;;;;;;47.40;12.70;;;3.80;99.90;;;;;;4717525;30;20953;-87
2020/12/21 07:23:41;;;;;;;41.85;10.75;;;3.90;99.90;;;;;;4732805;30;20390;-87
2020/12/21 07:26:08;;;;;;;48.58;12.98;;;3.90;99.90;;;;;;4748307;30;20044;-88
2020/12/21 07:28:34;;;;;;;34.25;10.50;;;3.90;99.90;;;;;;4748668;30;20040;-88
2020/12/21 07:31:14;;;;;;;43.72;12.82;;;4.00;99.90;;;;;;4732924;30;20130;-87
2020/12/21 07:33:57;;;;;;;40.67;11.80;;;4.10;99.90;;;;;;4748979;30;20123;-87
2020/12/21 07:36:29;;;;;;;35.05;8.95;;;4.00;99.90;;;;;;4747613;30;20123;-87
2020/12/21 07:39:05;;;;;;;44.85;12.35;;;4.00;99.90;;;;;;4748667;30;20108;-87
2020/12/21 07:41:33;;;;;;;36.80;12.52;;;4.00;99.90;;;;;;4731953;30;20814;-87
2020/12/21 07:44:06;;;;;;;39.80;12.25;;;4.00;99.90;;;;;;4748837;30;20070;-87
2020/12/21 07:46:56;;;;;;;44.28;12.48;;;4.00;99.90;;;;;;4748130;30;20052;-87
2020/12/21 07:49:23;;;;;;;29.52;9.57;;;4.00;99.90;;;;;;4746364;30;20080;-87
2020/12/21 07:51:49;;;;;;;42.67;12.07;;;4.10;99.90;;;;;;4747079;30;20060;-88
2020/12/21 07:54:15;;;;;;;39.40;11.88;;;4.00;99.90;;;;;;4747335;30;20044;-87
2020/12/21 07:56:41;;;;;;;36.63;11.27;;;4.00;99.90;;;;;;4732247;30;20068;-87
2020/12/21 07:59:18;;;;;;;37.63;11.77;;;4.10;99.90;;;;;;4732474;30;20058;-88
2020/12/21 08:01:45;;;;;;;41.72;13.27;;;4.10;99.90;;;;;;4733370;30;20484;-87
2020/12/21 08:04:16;;;;;;;32.80;11.02;;;4.20;99.90;;;;;;4731891;30;20504;-88
2020/12/21 08:06:42;;;;;;;44.00;11.25;;;4.20;99.90;;;;;;4742869;30;20497;-87
2020/12/21 08:09:08;;;;;;;42.30;13.55;;;4.20;99.90;;;;;;4732012;30;20054;-87
2020/12/21 08:11:36;;;;;;;48.25;10.93;;;4.20;99.90;;;;;;4747993;30;20498;-87
2020/12/21 08:14:03;;;;;;;45.35;11.88;;;4.20;99.90;;;;;;4751945;30;20047;-89
2020/12/21 08:16:28;;;;;;;34.17;11.95;;;4.20;99.90;;;;;;4742416;30;20121;-87
2020/12/21 08:18:54;;;;;;;43.53;12.77;;;4.30;99.90;;;;;;4750479;30;20081;-86
2020/12/21 08:21:24;;;;;;;51.13;14.35;;;4.40;99.90;;;;;;4735074;30;20040;-86
2020/12/21 08:23:54;;;;;;;41.60;13.20;;;4.50;99.90;;;;;;4735945;30;20055;-86
2020/12/21 08:26:21;;;;;;;32.58;11.77;;;4.50;99.90;;;;;;4719928;30;20055;-87
2020/12/21 08:28:50;;;;;;;49.10;14.63;;;4.60;99.90;;;;;;4735836;30;20413;-88
2020/12/21 08:31:21;;;;;;;41.45;12.15;;;4.70;99.90;;;;;;4750944;30;20067;-88
2020/12/21 08:33:57;;;;;;;42.55;15.02;;;4.80;99.90;;;;;;4721181;30;20064;-88
2020/12/21 08:36:41;;;;;;;39.05;13.27;;;4.90;99.90;;;;;;4751079;30;20044;-86
2020/12/21 08:39:14;;;;;;;37.13;13.27;;;4.90;99.90;;;;;;4728569;30;20044;-87
2020/12/21 08:41:59;;;;;;;34.15;12.40;;;5.00;99.90;;;;;;4740262;30;20061;-87
2020/12/21 08:44:28;;;;;;;35.50;11.48;;;5.00;99.90;;;;;;4749064;30;20040;-86
2020/12/21 08:46:59;;;;;;;38.28;11.38;;;5.00;99.90;;;;;;4748736;30;20116;-87
2020/12/21 08:49:26;;;;;;;31.60;10.88;;;5.10;99.90;;;;;;4745548;30;20053;-86
2020/12/21 08:51:52;;;;;;;39.55;11.13;;;5.20;99.90;;;;;;4730359;30;20067;-88
2020/12/21 08:54:18;;;;;;;28.42;9.75;;;5.20;99.90;;;;;;4731722;30;20052;-88
2020/12/21 08:56:49;;;;;;;31.80;8.52;;;5.20;99.90;;;;;;4742860;30;20059;-88
2020/12/21 08:59:15;;;;;;;22.77;9.10;;;5.30;99.90;;;;;;4733357;30;20056;-89
2020/12/21 09:01:42;;;;;;;35.22;9.30;;;5.30;99.90;;;;;;4731102;30;20072;-87
2020/12/21 09:04:08;;;;;;;37.63;9.07;;;5.30;99.90;;;;;;4734122;30;20110;-87
2020/12/21 09:06:34;;;;;;;29.13;9.20;;;5.30;99.90;;;;;;4741046;30;20640;-88
2020/12/21 09:09:00;;;;;;;27.48;8.15;;;5.30;99.90;;;;;;4714766;30;20119;-87
2020/12/21 09:11:26;;;;;;;40.42;8.98;;;5.20;99.90;;;;;;4733293;30;20048;-86
2020/12/21 09:13:53;;;;;;;32.30;9.60;;;5.20;99.90;;;;;;4741222;30;20055;-87
2020/12/21 09:16:20;;;;;;;32.97;8.40;;;5.10;99.90;;;;;;4719743;30;20055;-87
2020/12/21 09:18:46;;;;;;;35.17;9.02;;;5.20;99.90;;;;;;4736731;30;20048;-87
2020/12/21 09:21:38;;;;;;;25.77;8.00;;;5.10;99.90;;;;;;4739017;30;20045;-87
2020/12/21 09:24:04;;;;;;;25.35;6.93;;;5.10;99.90;;;;;;4730732;30;20493;-87
2020/12/21 09:26:30;;;;;;;36.10;7.97;;;5.10;99.90;;;;;;4731423;30;20081;-88
2020/12/21 09:28:56;;;;;;;35.47;7.65;;;5.00;99.90;;;;;;4732808;30;20059;-87
2020/12/21 09:31:23;;;;;;;31.42;7.45;;;5.10;99.90;;;;;;4716976;30;20057;-86
2020/12/21 09:33:49;;;;;;;36.65;8.10;;;5.00;99.90;;;;;;4721666;30;20072;-87
2020/12/21 09:36:16;;;;;;;26.45;7.15;;;5.00;99.90;;;;;;4741291;30;20048;-87
2020/12/21 09:38:44;;;;;;;36.67;7.88;;;5.00;99.90;;;;;;4713595;30;20066;-86
2020/12/21 09:41:16;;;;;;;25.80;8.35;;;4.90;99.90;;;;;;4751211;30;20539;-85
2020/12/21 09:43:44;;;;;;;23.20;9.38;;;4.90;99.90;;;;;;4736849;30;20052;-88
2020/12/21 09:46:11;;;;;;;30.55;8.20;;;5.00;99.90;;;;;;4729829;30;20151;-84
2020/12/21 09:48:38;;;;;;;27.98;8.75;;;4.90;99.90;;;;;;4750233;30;20063;-85
2020/12/21 09:51:04;;;;;;;27.85;8.13;;;4.90;99.90;;;;;;4718498;30;20041;-85
2020/12/21 09:53:30;;;;;;;29.85;8.65;;;4.90;99.90;;;;;;4734087;30;20051;-84
2020/12/21 09:55:55;;;;;;;35.97;7.43;;;5.00;99.90;;;;;;4733151;30;20649;-85
2020/12/21 09:58:21;;;;;;;33.08;7.82;;;5.00;99.90;;;;;;4717994;30;20055;-88
2020/12/21 10:00:47;;;;;;;20.65;7.15;;;5.00;99.90;;;;;;4705083;30;20052;-82
2020/12/21 10:03:13;;;;;;;21.45;6.47;;;5.00;99.90;;;;;;4715619;30;20048;-83
2020/12/21 10:05:39;;;;;;;26.38;6.80;;;5.00;99.90;;;;;;4741199;30;20138;-84
2020/12/21 10:08:05;;;;;;;22.38;6.70;;;5.00;99.90;;;;;;4721717;30;20080;-84
2020/12/21 10:10:30;;;;;;;24.13;6.82;;;5.00;99.90;;;;;;4714163;30;20060;-84
2020/12/21 10:12:56;;;;;;;34.20;7.10;;;5.00;99.90;;;;;;4716015;30;20139;-84
2020/12/21 10:15:22;;;;;;;27.23;6.35;;;5.00;99.90;;;;;;4739317;30;20048;-89
2020/12/21 10:17:48;;;;;;;25.33;6.22;;;5.00;99.90;;;;;;4736976;30;20417;-84
2020/12/21 10:20:13;;;;;;;26.05;7.20;;;5.00;99.90;;;;;;4741677;30;20084;-87
2020/12/21 10:22:39;;;;;;;31.77;6.75;;;5.10;99.90;;;;;;4714724;30;20189;-84
2020/12/21 10:25:05;;;;;;;24.13;7.13;;;5.10;99.90;;;;;;4717823;30;20121;-84
2020/12/21 10:27:31;;;;;;;19.52;6.65;;;5.20;99.90;;;;;;4726162;30;20135;-85
2020/12/21 10:29:56;;;;;;;22.17;7.35;;;5.30;99.90;;;;;;4717838;30;20040;-84
2020/12/21 10:32:22;;;;;;;24.33;6.25;;;5.30;99.90;;;;;;4731870;30;20148;-88
2020/12/21 10:34:48;;;;;;;20.27;6.22;;;5.40;99.90;;;;;;4748137;30;20055;-84
2020/12/21 10:37:13;;;;;;;26.00;7.13;;;5.50;99.90;;;;;;4732717;30;20479;-85
2020/12/21 10:39:39;;;;;;;23.10;6.72;;;5.60;99.90;;;;;;4733332;30;20553;-84
2020/12/21 10:42:06;;;;;;;26.33;6.75;;;5.60;99.90;;;;;;4734099;30;20048;-84
2020/12/21 10:44:32;;;;;;;23.48;6.70;;;5.70;99.90;;;;;;4742889;30;20056;-86
2020/12/21 10:46:59;;;;;;;24.13;6.70;;;5.70;99.90;;;;;;4719749;30;20493;-85
2020/12/21 10:49:25;;;;;;;27.75;7.25;;;5.70;99.90;;;;;;4719222;30;20122;-90
2020/12/21 10:51:51;;;;;;;32.70;7.53;;;5.70;99.90;;;;;;4747981;30;20052;-84
2020/12/21 10:54:16;;;;;;;23.38;5.88;;;5.90;99.90;;;;;;4734058;30;20066;-84
2020/12/21 10:56:42;;;;;;;19.42;6.80;;;5.90;99.90;;;;;;4733211;30;20559;-84
2020/12/21 10:59:08;;;;;;;27.95;6.95;;;6.00;99.90;;;;;;4719458;30;20044;-84
2020/12/21 11:01:34;;;;;;;27.52;7.78;;;6.10;99.90;;;;;;4733334;30;20050;-84
2020/12/21 11:04:00;;;;;;;29.10;6.90;;;6.20;99.90;;;;;;4733535;30;20048;-85
2020/12/21 11:06:26;;;;;;;28.70;7.10;;;6.20;99.90;;;;;;4733541;30;20463;-90
2020/12/21 11:08:53;;;;;;;32.92;6.32;;;6.30;99.90;;;;;;4734085;30;20448;-84
2020/12/21 11:11:26;;;;;;;24.02;5.68;;;6.40;99.90;;;;;;4749635;30;20102;-84
2020/12/21 11:13:53;;;;;;;31.75;7.13;;;6.40;99.90;;;;;;4733170;30;20059;-84
2020/12/21 11:16:20;;;;;;;25.95;5.70;;;6.40;99.90;;;;;;4733632;30;20087;-84
2020/12/21 11:18:45;;;;;;;13.30;5.47;;;6.50;99.90;;;;;;4734012;30;20098;-84
2020/12/21 11:21:11;;;;;;;19.05;5.78;;;6.60;99.90;;;;;;4732289;30;20080;-85
2020/12/21 11:23:37;;;;;;;19.90;5.93;;;6.60;99.90;;;;;;4722028;30;20052;-84
2020/12/21 11:26:03;;;;;;;21.70;6.28;;;6.70;99.90;;;;;;4708983;30;20531;-87
2020/12/21 11:28:28;;;;;;;22.98;6.78;;;6.70;99.90;;;;;;4716572;30;20057;-88
2020/12/21 11:30:54;;;;;;;31.77;6.47;;;6.80;99.90;;;;;;4725790;30;20579;-87
2020/12/21 11:33:20;;;;;;;24.98;5.85;;;6.80;99.90;;;;;;4735263;30;20135;-86
2020/12/21 11:35:46;;;;;;;23.45;5.30;;;6.90;99.90;;;;;;4717041;30;20137;-85
2020/12/21 11:38:11;;;;;;;19.75;6.07;;;6.90;99.90;;;;;;4743684;30;20195;-87
2020/12/21 11:40:37;;;;;;;19.92;5.13;;;7.00;99.90;;;;;;4739981;30;20675;-87
2020/12/21 11:43:03;;;;;;;20.77;5.95;;;7.00;99.90;;;;;;4726910;30;20504;-88
2020/12/21 11:45:29;;;;;;;15.95;5.03;;;7.10;99.90;;;;;;4731420;30;20051;-89
2020/12/21 11:47:54;;;;;;;22.67;4.93;;;7.10;99.90;;;;;;4731386;30;20052;-87
2020/12/21 11:50:20;;;;;;;20.00;5.25;;;7.20;99.90;;;;;;4745362;30;20108;-86
2020/12/21 11:52:47;;;;;;;20.02;4.95;;;7.20;99.90;;;;;;4720470;30;20048;-89
2020/12/21 11:55:13;;;;;;;15.52;4.57;;;7.20;99.90;;;;;;4729543;30;20056;-88
2020/12/21 11:57:39;;;;;;;21.02;5.47;;;7.20;99.90;;;;;;4702498;30;20374;-88
2020/12/21 12:00:05;;;;;;;13.50;3.78;;;7.30;99.90;;;;;;4715817;30;20406;-88
2020/12/21 12:02:32;;;;;;;27.92;4.97;;;7.30;99.90;;;;;;4712472;30;20504;-86
2020/12/21 12:04:57;;;;;;;17.05;5.47;;;7.30;99.90;;;;;;4742303;30;20086;-87
2020/12/21 12:07:23;;;;;;;16.70;4.60;;;7.30;99.90;;;;;;4727295;30;20067;-86
2020/12/21 12:09:49;;;;;;;21.10;4.78;;;7.30;99.90;;;;;;4718437;30;20044;-88
2020/12/21 12:12:15;;;;;;;16.63;4.20;;;7.30;99.90;;;;;;4723320;30;20055;-86
2020/12/21 12:14:40;;;;;;;23.13;4.82;;;7.30;99.90;;;;;;4742244;30;20055;-87
2020/12/21 12:17:06;;;;;;;20.88;5.03;;;7.30;99.90;;;;;;4723776;30;20052;-87
2020/12/21 12:19:32;;;;;;;21.35;4.88;;;7.30;99.90;;;;;;4706880;30;20052;-90
2020/12/21 12:21:58;;;;;;;23.50;5.68;;;7.30;99.90;;;;;;4699150;30;20049;-87
2020/12/21 12:24:24;;;;;;;19.05;4.65;;;7.20;99.90;;;;;;4699537;30;20388;-87
2020/12/21 12:26:53;;;;;;;15.93;4.05;;;7.20;99.90;;;;;;4713574;30;20052;-87
2020/12/21 12:29:20;;;;;;;19.85;4.63;;;7.20;99.90;;;;;;4714914;30;20063;-87
2020/12/21 12:31:46;;;;;;;20.98;5.10;;;7.20;99.90;;;;;;4713543;30;20052;-88
2020/12/21 12:34:12;;;;;;;21.45;4.45;;;7.20;99.90;;;;;;4731312;30;20047;-87
2020/12/21 12:36:40;;;;;;;20.98;4.80;;;7.20;99.90;;;;;;4742527;30;20056;-86
2020/12/21 12:39:07;;;;;;;16.85;4.00;;;7.20;99.90;;;;;;4730643;30;20052;-87
2020/12/21 12:41:41;;;;;;;20.17;4.57;;;7.20;99.90;;;;;;4730487;30;20060;-87
2020/12/21 12:44:07;;;;;;;14.32;5.15;;;7.20;99.90;;;;;;4717516;30;20056;-87
2020/12/21 12:46:34;;;;;;;13.00;4.05;;;7.20;99.90;;;;;;4746259;30;20079;-87
2020/12/21 12:49:05;;;;;;;14.45;3.70;;;7.20;99.90;;;;;;4732175;30;20501;-87